sensor_id;sensor_type;location;lat;lon;timestamp;temperature;humidity
75190;HTU21D;69198;44.694;37.790;2024-03-22T00:00:02;8.86;73.63
75190;HTU21D;69198;44.694;37.790;2024-03-22T00:01:13;8.83;73.73
75190;HTU21D;69198;44.694;37.790;2024-03-22T00:02:14;8.82;73.68
75190;HTU21D;69198;44.694;37.790;2024-03-22T00:03:15;8.85;73.59
75190;HTU21D;69198;44.694;37.790;2024-03-22T00:04:16;8.86;73.51
75190;HTU21D;69198;44.694;37.790;2024-03-22T00:05:17;8.88;73.55
75190;HTU21D;69198;44.694;37.790;2024-03-22T00:06:18;8.82;73.57
75190;HTU21D;69198;44.694;37.790;2024-03-22T00:07:22;8.81;73.57
75190;HTU21D;69198;44.694;37.790;2024-03-22T00:08:23;8.79;73.64
75190;HTU21D;69198;44.694;37.790;2024-03-22T00:09:24;8.77;73.67
75190;HTU21D;69198;44.694;37.790;2024-03-22T00:10:25;8.74;73.76
75190;HTU21D;69198;44.694;37.790;2024-03-22T00:11:26;8.79;73.53
75190;HTU21D;69198;44.694;37.790;2024-03-22T00:12:27;8.91;73.04
75190;HTU21D;69198;44.694;37.790;2024-03-22T00:13:28;8.96;72.92
75190;HTU21D;69198;44.694;37.790;2024-03-22T00:14:29;8.98;72.87
75190;HTU21D;69198;44.694;37.790;2024-03-22T00:15:30;8.95;72.74
75190;HTU21D;69198;44.694;37.790;2024-03-22T00:16:34;8.90;72.89
75190;HTU21D;69198;44.694;37.790;2024-03-22T00:17:35;8.83;73.04
75190;HTU21D;69198;44.694;37.790;2024-03-22T00:18:36;8.80;73.12
75190;HTU21D;69198;44.694;37.790;2024-03-22T00:19:37;8.75;73.31
75190;HTU21D;69198;44.694;37.790;2024-03-22T00:20:38;8.76;73.38
75190;HTU21D;69198;44.694;37.790;2024-03-22T00:21:39;8.74;73.41
75190;HTU21D;69198;44.694;37.790;2024-03-22T00:22:40;8.76;73.48
75190;HTU21D;69198;44.694;37.790;2024-03-22T00:23:43;8.85;73.41
75190;HTU21D;69198;44.694;37.790;2024-03-22T00:24:45;8.89;73.32
75190;HTU21D;69198;44.694;37.790;2024-03-22T00:25:46;8.93;72.96
75190;HTU21D;69198;44.694;37.790;2024-03-22T00:26:47;8.93;72.76
75190;HTU21D;69198;44.694;37.790;2024-03-22T00:27:50;8.93;72.68
75190;HTU21D;69198;44.694;37.790;2024-03-22T00:28:51;8.89;72.77
75190;HTU21D;69198;44.694;37.790;2024-03-22T00:29:52;8.89;72.86
75190;HTU21D;69198;44.694;37.790;2024-03-22T00:30:53;8.86;72.99
75190;HTU21D;69198;44.694;37.790;2024-03-22T00:31:54;8.83;73.03
75190;HTU21D;69198;44.694;37.790;2024-03-22T00:32:57;8.82;72.96
75190;HTU21D;69198;44.694;37.790;2024-03-22T00:34:16;8.79;72.98
75190;HTU21D;69198;44.694;37.790;2024-03-22T00:35:20;8.76;72.89
75190;HTU21D;69198;44.694;37.790;2024-03-22T00:36:21;8.75;73.05
75190;HTU21D;69198;44.694;37.790;2024-03-22T00:37:22;8.80;73.04
75190;HTU21D;69198;44.694;37.790;2024-03-22T00:38:23;8.82;72.99
75190;HTU21D;69198;44.694;37.790;2024-03-22T00:39:24;8.88;72.89
75190;HTU21D;69198;44.694;37.790;2024-03-22T00:40:25;8.90;72.75
75190;HTU21D;69198;44.694;37.790;2024-03-22T00:41:26;8.87;72.74
75190;HTU21D;69198;44.694;37.790;2024-03-22T00:42:27;8.90;72.73
75190;HTU21D;69198;44.694;37.790;2024-03-22T00:43:28;8.92;72.66
75190;HTU21D;69198;44.694;37.790;2024-03-22T00:44:29;8.98;72.56
75190;HTU21D;69198;44.694;37.790;2024-03-22T00:45:30;8.98;72.64
75190;HTU21D;69198;44.694;37.790;2024-03-22T00:46:31;9.03;72.51
75190;HTU21D;69198;44.694;37.790;2024-03-22T00:47:32;9.02;72.27
75190;HTU21D;69198;44.694;37.790;2024-03-22T00:48:33;8.96;72.45
75190;HTU21D;69198;44.694;37.790;2024-03-22T00:49:36;8.94;72.59
75190;HTU21D;69198;44.694;37.790;2024-03-22T00:50:37;8.93;72.58
75190;HTU21D;69198;44.694;37.790;2024-03-22T00:51:41;8.95;72.61
75190;HTU21D;69198;44.694;37.790;2024-03-22T00:52:44;8.96;72.67
75190;HTU21D;69198;44.694;37.790;2024-03-22T00:53:45;8.96;72.43
75190;HTU21D;69198;44.694;37.790;2024-03-22T00:54:46;8.92;72.30
75190;HTU21D;69198;44.694;37.790;2024-03-22T00:55:47;8.83;72.31
75190;HTU21D;69198;44.694;37.790;2024-03-22T00:56:51;8.77;72.44
75190;HTU21D;69198;44.694;37.790;2024-03-22T00:57:52;8.71;72.44
75190;HTU21D;69198;44.694;37.790;2024-03-22T00:58:53;8.61;72.67
75190;HTU21D;69198;44.694;37.790;2024-03-22T00:59:54;8.56;72.65
75190;HTU21D;69198;44.694;37.790;2024-03-22T01:00:55;8.48;72.77
75190;HTU21D;69198;44.694;37.790;2024-03-22T01:01:56;8.46;73.10
75190;HTU21D;69198;44.694;37.790;2024-03-22T01:02:57;8.46;73.15
75190;HTU21D;69198;44.694;37.790;2024-03-22T01:03:58;8.44;73.10
75190;HTU21D;69198;44.694;37.790;2024-03-22T01:04:59;8.39;73.06
75190;HTU21D;69198;44.694;37.790;2024-03-22T01:06:00;8.32;73.25
75190;HTU21D;69198;44.694;37.790;2024-03-22T01:07:02;8.29;73.35
75190;HTU21D;69198;44.694;37.790;2024-03-22T01:08:04;8.27;73.49
75190;HTU21D;69198;44.694;37.790;2024-03-22T01:09:06;8.21;73.56
75190;HTU21D;69198;44.694;37.790;2024-03-22T01:10:08;8.15;73.57
75190;HTU21D;69198;44.694;37.790;2024-03-22T01:11:09;8.09;73.67
75190;HTU21D;69198;44.694;37.790;2024-03-22T01:12:10;8.03;73.93
75190;HTU21D;69198;44.694;37.790;2024-03-22T01:13:11;8.05;73.91
75190;HTU21D;69198;44.694;37.790;2024-03-22T01:14:12;8.02;74.03
75190;HTU21D;69198;44.694;37.790;2024-03-22T01:15:13;8.07;73.99
75190;HTU21D;69198;44.694;37.790;2024-03-22T01:16:14;8.04;74.05
75190;HTU21D;69198;44.694;37.790;2024-03-22T01:17:15;8.03;73.93
75190;HTU21D;69198;44.694;37.790;2024-03-22T01:18:16;8.03;73.90
75190;HTU21D;69198;44.694;37.790;2024-03-22T01:19:17;8.02;73.91
75190;HTU21D;69198;44.694;37.790;2024-03-22T01:20:18;8.00;73.92
75190;HTU21D;69198;44.694;37.790;2024-03-22T01:21:19;7.99;74.06
75190;HTU21D;69198;44.694;37.790;2024-03-22T01:22:25;7.99;74.09
75190;HTU21D;69198;44.694;37.790;2024-03-22T01:23:26;7.98;74.01
75190;HTU21D;69198;44.694;37.790;2024-03-22T01:24:27;7.94;73.90
75190;HTU21D;69198;44.694;37.790;2024-03-22T01:25:28;7.85;73.71
75190;HTU21D;69198;44.694;37.790;2024-03-22T01:26:29;7.79;73.75
75190;HTU21D;69198;44.694;37.790;2024-03-22T01:27:30;7.73;74.18
75190;HTU21D;69198;44.694;37.790;2024-03-22T01:28:31;7.68;74.41
75190;HTU21D;69198;44.694;37.790;2024-03-22T01:29:32;7.59;74.23
75190;HTU21D;69198;44.694;37.790;2024-03-22T01:30:33;7.49;74.21
75190;HTU21D;69198;44.694;37.790;2024-03-22T01:31:36;7.39;74.51
75190;HTU21D;69198;44.694;37.790;2024-03-22T01:32:37;7.35;74.75
75190;HTU21D;69198;44.694;37.790;2024-03-22T01:33:38;7.34;74.92
75190;HTU21D;69198;44.694;37.790;2024-03-22T01:34:39;7.30;74.76
75190;HTU21D;69198;44.694;37.790;2024-03-22T01:35:40;7.26;74.92
75190;HTU21D;69198;44.694;37.790;2024-03-22T01:36:41;7.25;75.27
75190;HTU21D;69198;44.694;37.790;2024-03-22T01:37:42;7.23;75.42
75190;HTU21D;69198;44.694;37.790;2024-03-22T01:38:43;7.22;75.50
75190;HTU21D;69198;44.694;37.790;2024-03-22T01:39:44;7.19;75.63
75190;HTU21D;69198;44.694;37.790;2024-03-22T01:40:45;7.17;75.80
75190;HTU21D;69198;44.694;37.790;2024-03-22T01:41:50;7.19;75.94
75190;HTU21D;69198;44.694;37.790;2024-03-22T01:42:57;7.20;75.64
75190;HTU21D;69198;44.694;37.790;2024-03-22T01:43:58;7.14;75.78
75190;HTU21D;69198;44.694;37.790;2024-03-22T01:44:59;7.07;75.96
75190;HTU21D;69198;44.694;37.790;2024-03-22T01:46:00;7.03;76.09
75190;HTU21D;69198;44.694;37.790;2024-03-22T01:47:02;6.99;76.39
75190;HTU21D;69198;44.694;37.790;2024-03-22T01:48:04;6.94;76.57
75190;HTU21D;69198;44.694;37.790;2024-03-22T01:49:05;6.89;76.53
75190;HTU21D;69198;44.694;37.790;2024-03-22T01:50:07;6.85;76.90
75190;HTU21D;69198;44.694;37.790;2024-03-22T01:51:09;6.85;77.15
75190;HTU21D;69198;44.694;37.790;2024-03-22T01:52:10;6.85;77.39
75190;HTU21D;69198;44.694;37.790;2024-03-22T01:53:11;6.83;77.53
75190;HTU21D;69198;44.694;37.790;2024-03-22T01:54:13;6.80;77.50
75190;HTU21D;69198;44.694;37.790;2024-03-22T01:55:16;6.76;77.88
75190;HTU21D;69198;44.694;37.790;2024-03-22T01:56:21;6.72;77.98
75190;HTU21D;69198;44.694;37.790;2024-03-22T01:57:23;6.73;78.35
75190;HTU21D;69198;44.694;37.790;2024-03-22T01:58:24;6.76;78.46
75190;HTU21D;69198;44.694;37.790;2024-03-22T01:59:26;6.83;78.72
75190;HTU21D;69198;44.694;37.790;2024-03-22T02:00:27;6.83;78.68
75190;HTU21D;69198;44.694;37.790;2024-03-22T02:01:28;6.86;78.69
75190;HTU21D;69198;44.694;37.790;2024-03-22T02:02:29;6.84;78.78
75190;HTU21D;69198;44.694;37.790;2024-03-22T02:03:30;6.89;78.79
75190;HTU21D;69198;44.694;37.790;2024-03-22T02:04:31;6.93;78.58
75190;HTU21D;69198;44.694;37.790;2024-03-22T02:05:32;6.90;78.36
75190;HTU21D;69198;44.694;37.790;2024-03-22T02:06:33;6.90;78.26
75190;HTU21D;69198;44.694;37.790;2024-03-22T02:07:35;6.89;78.27
75190;HTU21D;69198;44.694;37.790;2024-03-22T02:08:36;6.88;78.21
75190;HTU21D;69198;44.694;37.790;2024-03-22T02:09:37;6.87;78.20
75190;HTU21D;69198;44.694;37.790;2024-03-22T02:10:38;6.88;78.18
75190;HTU21D;69198;44.694;37.790;2024-03-22T02:11:39;6.88;77.92
75190;HTU21D;69198;44.694;37.790;2024-03-22T02:12:41;6.82;77.97
75190;HTU21D;69198;44.694;37.790;2024-03-22T02:13:42;6.80;78.06
75190;HTU21D;69198;44.694;37.790;2024-03-22T02:14:46;6.87;78.14
75190;HTU21D;69198;44.694;37.790;2024-03-22T02:15:47;6.93;78.08
75190;HTU21D;69198;44.694;37.790;2024-03-22T02:16:48;6.94;77.88
75190;HTU21D;69198;44.694;37.790;2024-03-22T02:17:49;6.89;77.79
75190;HTU21D;69198;44.694;37.790;2024-03-22T02:18:50;6.86;77.72
75190;HTU21D;69198;44.694;37.790;2024-03-22T02:19:51;6.84;77.64
75190;HTU21D;69198;44.694;37.790;2024-03-22T02:20:52;6.83;77.57
75190;HTU21D;69198;44.694;37.790;2024-03-22T02:21:53;6.82;77.47
75190;HTU21D;69198;44.694;37.790;2024-03-22T02:22:54;6.79;77.37
75190;HTU21D;69198;44.694;37.790;2024-03-22T02:23:55;6.75;77.22
75190;HTU21D;69198;44.694;37.790;2024-03-22T02:24:56;6.72;77.18
75190;HTU21D;69198;44.694;37.790;2024-03-22T02:25:57;6.69;77.07
75190;HTU21D;69198;44.694;37.790;2024-03-22T02:26:58;6.66;77.02
75190;HTU21D;69198;44.694;37.790;2024-03-22T02:27:59;6.64;76.95
75190;HTU21D;69198;44.694;37.790;2024-03-22T02:29:00;6.60;76.88
75190;HTU21D;69198;44.694;37.790;2024-03-22T02:30:01;6.59;76.82
75190;HTU21D;69198;44.694;37.790;2024-03-22T02:31:03;6.57;76.79
75190;HTU21D;69198;44.694;37.790;2024-03-22T02:32:05;6.54;76.77
75190;HTU21D;69198;44.694;37.790;2024-03-22T02:33:07;6.55;76.70
75190;HTU21D;69198;44.694;37.790;2024-03-22T02:34:07;6.55;76.66
75190;HTU21D;69198;44.694;37.790;2024-03-22T02:35:09;6.57;76.54
75190;HTU21D;69198;44.694;37.790;2024-03-22T02:36:10;6.57;76.44
75190;HTU21D;69198;44.694;37.790;2024-03-22T02:37:11;6.57;76.38
75190;HTU21D;69198;44.694;37.790;2024-03-22T02:38:12;6.56;76.28
75190;HTU21D;69198;44.694;37.790;2024-03-22T02:39:13;6.56;76.24
75190;HTU21D;69198;44.694;37.790;2024-03-22T02:40:14;6.54;76.21
75190;HTU21D;69198;44.694;37.790;2024-03-22T02:41:15;6.53;76.24
75190;HTU21D;69198;44.694;37.790;2024-03-22T02:42:16;6.54;76.29
75190;HTU21D;69198;44.694;37.790;2024-03-22T02:43:17;6.56;76.21
75190;HTU21D;69198;44.694;37.790;2024-03-22T02:44:22;6.56;76.08
75190;HTU21D;69198;44.694;37.790;2024-03-22T02:45:23;6.56;76.02
75190;HTU21D;69198;44.694;37.790;2024-03-22T02:46:24;6.55;76.02
75190;HTU21D;69198;44.694;37.790;2024-03-22T02:47:25;6.55;75.92
75190;HTU21D;69198;44.694;37.790;2024-03-22T02:48:26;6.51;75.87
75190;HTU21D;69198;44.694;37.790;2024-03-22T02:49:28;6.49;75.86
75190;HTU21D;69198;44.694;37.790;2024-03-22T02:50:36;6.46;75.86
75190;HTU21D;69198;44.694;37.790;2024-03-22T02:51:39;6.42;75.76
75190;HTU21D;69198;44.694;37.790;2024-03-22T02:52:40;6.38;75.86
75190;HTU21D;69198;44.694;37.790;2024-03-22T02:53:41;6.38;75.91
75190;HTU21D;69198;44.694;37.790;2024-03-22T02:54:42;6.38;75.92
75190;HTU21D;69198;44.694;37.790;2024-03-22T02:55:42;6.38;75.87
75190;HTU21D;69198;44.694;37.790;2024-03-22T02:56:43;6.36;75.86
75190;HTU21D;69198;44.694;37.790;2024-03-22T02:57:44;6.36;75.88
75190;HTU21D;69198;44.694;37.790;2024-03-22T02:58:45;6.36;75.89
75190;HTU21D;69198;44.694;37.790;2024-03-22T02:59:46;6.35;75.90
75190;HTU21D;69198;44.694;37.790;2024-03-22T03:00:47;6.35;75.92
75190;HTU21D;69198;44.694;37.790;2024-03-22T03:01:48;6.34;75.98
75190;HTU21D;69198;44.694;37.790;2024-03-22T03:02:50;6.33;75.97
75190;HTU21D;69198;44.694;37.790;2024-03-22T03:03:51;6.31;75.97
75190;HTU21D;69198;44.694;37.790;2024-03-22T03:04:52;6.29;75.99
75190;HTU21D;69198;44.694;37.790;2024-03-22T03:05:53;6.27;76.04
75190;HTU21D;69198;44.694;37.790;2024-03-22T03:06:54;6.25;76.02
75190;HTU21D;69198;44.694;37.790;2024-03-22T03:07:56;6.24;76.05
75190;HTU21D;69198;44.694;37.790;2024-03-22T03:08:57;6.24;76.06
75190;HTU21D;69198;44.694;37.790;2024-03-22T03:09:58;6.25;76.02
75190;HTU21D;69198;44.694;37.790;2024-03-22T03:10:59;6.26;75.98
75190;HTU21D;69198;44.694;37.790;2024-03-22T03:12:00;6.27;75.94
75190;HTU21D;69198;44.694;37.790;2024-03-22T03:13:01;6.27;76.00
75190;HTU21D;69198;44.694;37.790;2024-03-22T03:14:02;6.27;76.05
75190;HTU21D;69198;44.694;37.790;2024-03-22T03:15:03;6.28;76.05
75190;HTU21D;69198;44.694;37.790;2024-03-22T03:16:05;6.34;75.97
75190;HTU21D;69198;44.694;37.790;2024-03-22T03:17:06;6.31;75.89
75190;HTU21D;69198;44.694;37.790;2024-03-22T03:18:07;6.29;75.87
75190;HTU21D;69198;44.694;37.790;2024-03-22T03:19:08;6.28;75.82
75190;HTU21D;69198;44.694;37.790;2024-03-22T03:20:09;6.27;75.73
75190;HTU21D;69198;44.694;37.790;2024-03-22T03:21:14;6.23;75.60
75190;HTU21D;69198;44.694;37.790;2024-03-22T03:22:15;6.15;75.75
75190;HTU21D;69198;44.694;37.790;2024-03-22T03:23:15;6.11;75.77
75190;HTU21D;69198;44.694;37.790;2024-03-22T03:24:16;6.08;75.78
75190;HTU21D;69198;44.694;37.790;2024-03-22T03:25:17;6.02;75.88
75190;HTU21D;69198;44.694;37.790;2024-03-22T03:26:18;5.96;75.97
75190;HTU21D;69198;44.694;37.790;2024-03-22T03:27:19;5.95;76.03
75190;HTU21D;69198;44.694;37.790;2024-03-22T03:28:20;5.93;76.10
75190;HTU21D;69198;44.694;37.790;2024-03-22T03:29:21;5.94;76.12
75190;HTU21D;69198;44.694;37.790;2024-03-22T03:30:22;5.91;76.15
75190;HTU21D;69198;44.694;37.790;2024-03-22T03:31:23;5.89;76.19
75190;HTU21D;69198;44.694;37.790;2024-03-22T03:32:25;5.85;76.24
75190;HTU21D;69198;44.694;37.790;2024-03-22T03:33:26;5.82;76.29
75190;HTU21D;69198;44.694;37.790;2024-03-22T03:34:27;5.82;76.34
75190;HTU21D;69198;44.694;37.790;2024-03-22T03:35:28;5.80;76.35
75190;HTU21D;69198;44.694;37.790;2024-03-22T03:36:30;5.77;76.41
75190;HTU21D;69198;44.694;37.790;2024-03-22T03:37:31;5.74;76.44
75190;HTU21D;69198;44.694;37.790;2024-03-22T03:38:32;5.71;76.51
75190;HTU21D;69198;44.694;37.790;2024-03-22T03:39:33;5.67;76.56
75190;HTU21D;69198;44.694;37.790;2024-03-22T03:40:34;5.64;76.60
75190;HTU21D;69198;44.694;37.790;2024-03-22T03:41:35;5.62;76.63
75190;HTU21D;69198;44.694;37.790;2024-03-22T03:42:36;5.59;76.66
75190;HTU21D;69198;44.694;37.790;2024-03-22T03:43:37;5.57;76.71
75190;HTU21D;69198;44.694;37.790;2024-03-22T03:44:38;5.55;76.72
75190;HTU21D;69198;44.694;37.790;2024-03-22T03:45:39;5.53;76.70
75190;HTU21D;69198;44.694;37.790;2024-03-22T03:46:40;5.50;76.75
75190;HTU21D;69198;44.694;37.790;2024-03-22T03:47:41;5.47;76.78
75190;HTU21D;69198;44.694;37.790;2024-03-22T03:48:42;5.45;76.84
75190;HTU21D;69198;44.694;37.790;2024-03-22T03:49:46;5.43;76.83
75190;HTU21D;69198;44.694;37.790;2024-03-22T03:50:55;5.41;76.89
75190;HTU21D;69198;44.694;37.790;2024-03-22T03:51:59;5.37;76.98
75190;HTU21D;69198;44.694;37.790;2024-03-22T03:53:00;5.36;77.02
75190;HTU21D;69198;44.694;37.790;2024-03-22T03:54:01;5.35;77.11
75190;HTU21D;69198;44.694;37.790;2024-03-22T03:55:02;5.32;77.14
75190;HTU21D;69198;44.694;37.790;2024-03-22T03:56:04;5.32;77.15
75190;HTU21D;69198;44.694;37.790;2024-03-22T03:57:05;5.32;77.19
75190;HTU21D;69198;44.694;37.790;2024-03-22T03:58:06;5.31;77.22
75190;HTU21D;69198;44.694;37.790;2024-03-22T03:59:07;5.31;77.26
75190;HTU21D;69198;44.694;37.790;2024-03-22T04:00:09;5.30;77.28
75190;HTU21D;69198;44.694;37.790;2024-03-22T04:01:10;5.27;77.27
75190;HTU21D;69198;44.694;37.790;2024-03-22T04:02:11;5.26;77.27
75190;HTU21D;69198;44.694;37.790;2024-03-22T04:03:12;5.26;77.34
75190;HTU21D;69198;44.694;37.790;2024-03-22T04:04:13;5.24;77.33
75190;HTU21D;69198;44.694;37.790;2024-03-22T04:05:14;5.26;77.38
75190;HTU21D;69198;44.694;37.790;2024-03-22T04:06:15;5.25;77.46
75190;HTU21D;69198;44.694;37.790;2024-03-22T04:07:16;5.23;77.46
75190;HTU21D;69198;44.694;37.790;2024-03-22T04:08:17;5.22;77.50
75190;HTU21D;69198;44.694;37.790;2024-03-22T04:09:18;5.21;77.56
75190;HTU21D;69198;44.694;37.790;2024-03-22T04:10:19;5.22;77.60
75190;HTU21D;69198;44.694;37.790;2024-03-22T04:11:20;5.21;77.62
75190;HTU21D;69198;44.694;37.790;2024-03-22T04:12:21;5.21;77.69
75190;HTU21D;69198;44.694;37.790;2024-03-22T04:13:24;5.22;77.76
75190;HTU21D;69198;44.694;37.790;2024-03-22T04:14:25;5.21;77.76
75190;HTU21D;69198;44.694;37.790;2024-03-22T04:15:26;5.22;77.79
75190;HTU21D;69198;44.694;37.790;2024-03-22T04:16:27;5.21;77.78
75190;HTU21D;69198;44.694;37.790;2024-03-22T04:17:28;5.21;77.80
75190;HTU21D;69198;44.694;37.790;2024-03-22T04:18:30;5.21;77.85
75190;HTU21D;69198;44.694;37.790;2024-03-22T04:19:31;5.22;77.87
75190;HTU21D;69198;44.694;37.790;2024-03-22T04:20:32;5.22;77.93
75190;HTU21D;69198;44.694;37.790;2024-03-22T04:21:33;5.22;78.02
75190;HTU21D;69198;44.694;37.790;2024-03-22T04:22:34;5.22;78.06
75190;HTU21D;69198;44.694;37.790;2024-03-22T04:23:35;5.22;78.04
75190;HTU21D;69198;44.694;37.790;2024-03-22T04:24:36;5.22;78.11
75190;HTU21D;69198;44.694;37.790;2024-03-22T04:25:37;5.23;78.14
75190;HTU21D;69198;44.694;37.790;2024-03-22T04:26:38;5.22;78.16
75190;HTU21D;69198;44.694;37.790;2024-03-22T04:27:39;5.22;78.21
75190;HTU21D;69198;44.694;37.790;2024-03-22T04:28:40;5.21;78.24
75190;HTU21D;69198;44.694;37.790;2024-03-22T04:29:41;5.22;78.47
75190;HTU21D;69198;44.694;37.790;2024-03-22T04:30:42;5.22;78.56
75190;HTU21D;69198;44.694;37.790;2024-03-22T04:31:43;5.21;78.54
75190;HTU21D;69198;44.694;37.790;2024-03-22T04:32:46;5.22;78.55
75190;HTU21D;69198;44.694;37.790;2024-03-22T04:33:47;5.20;78.63
75190;HTU21D;69198;44.694;37.790;2024-03-22T04:34:48;5.20;78.64
75190;HTU21D;69198;44.694;37.790;2024-03-22T04:35:49;5.20;78.66
75190;HTU21D;69198;44.694;37.790;2024-03-22T04:36:50;5.17;78.69
75190;HTU21D;69198;44.694;37.790;2024-03-22T04:37:52;5.13;78.67
75190;HTU21D;69198;44.694;37.790;2024-03-22T04:38:53;5.11;78.66
75190;HTU21D;69198;44.694;37.790;2024-03-22T04:39:54;5.10;78.63
75190;HTU21D;69198;44.694;37.790;2024-03-22T04:40:56;5.11;78.67
75190;HTU21D;69198;44.694;37.790;2024-03-22T04:41:57;5.13;78.67
75190;HTU21D;69198;44.694;37.790;2024-03-22T04:42:58;5.15;78.79
75190;HTU21D;69198;44.694;37.790;2024-03-22T04:43:59;5.12;78.72
75190;HTU21D;69198;44.694;37.790;2024-03-22T04:45:00;5.11;78.75
75190;HTU21D;69198;44.694;37.790;2024-03-22T04:46:01;5.12;78.71
75190;HTU21D;69198;44.694;37.790;2024-03-22T04:47:02;5.12;78.66
75190;HTU21D;69198;44.694;37.790;2024-03-22T04:48:04;5.15;78.66
75190;HTU21D;69198;44.694;37.790;2024-03-22T04:49:05;5.16;78.98
75190;HTU21D;69198;44.694;37.790;2024-03-22T04:50:06;5.15;78.95
75190;HTU21D;69198;44.694;37.790;2024-03-22T04:51:08;5.13;78.87
75190;HTU21D;69198;44.694;37.790;2024-03-22T04:52:09;5.13;78.95
75190;HTU21D;69198;44.694;37.790;2024-03-22T04:53:10;5.08;79.02
75190;HTU21D;69198;44.694;37.790;2024-03-22T04:54:11;5.05;79.10
75190;HTU21D;69198;44.694;37.790;2024-03-22T04:55:12;5.02;79.14
75190;HTU21D;69198;44.694;37.790;2024-03-22T04:56:14;5.01;79.21
75190;HTU21D;69198;44.694;37.790;2024-03-22T04:57:14;5.01;79.23
75190;HTU21D;69198;44.694;37.790;2024-03-22T04:58:17;5.01;79.25
75190;HTU21D;69198;44.694;37.790;2024-03-22T04:59:19;4.98;79.30
75190;HTU21D;69198;44.694;37.790;2024-03-22T05:00:20;4.98;79.33
75190;HTU21D;69198;44.694;37.790;2024-03-22T05:01:21;4.98;79.40
75190;HTU21D;69198;44.694;37.790;2024-03-22T05:02:24;5.00;79.49
75190;HTU21D;69198;44.694;37.790;2024-03-22T05:03:25;4.98;79.56
75190;HTU21D;69198;44.694;37.790;2024-03-22T05:04:26;4.97;79.57
75190;HTU21D;69198;44.694;37.790;2024-03-22T05:05:27;4.98;79.67
75190;HTU21D;69198;44.694;37.790;2024-03-22T05:06:28;4.95;79.72
75190;HTU21D;69198;44.694;37.790;2024-03-22T05:07:29;4.93;79.75
75190;HTU21D;69198;44.694;37.790;2024-03-22T05:08:30;4.94;79.98
75190;HTU21D;69198;44.694;37.790;2024-03-22T05:09:31;4.92;79.93
75190;HTU21D;69198;44.694;37.790;2024-03-22T05:10:33;4.90;79.90
75190;HTU21D;69198;44.694;37.790;2024-03-22T05:11:34;4.87;79.91
75190;HTU21D;69198;44.694;37.790;2024-03-22T05:12:35;4.87;79.89
75190;HTU21D;69198;44.694;37.790;2024-03-22T05:13:36;4.86;79.91
75190;HTU21D;69198;44.694;37.790;2024-03-22T05:14:37;4.84;79.88
75190;HTU21D;69198;44.694;37.790;2024-03-22T05:15:38;4.83;79.90
75190;HTU21D;69198;44.694;37.790;2024-03-22T05:16:39;4.84;79.93
75190;HTU21D;69198;44.694;37.790;2024-03-22T05:17:40;4.81;79.95
75190;HTU21D;69198;44.694;37.790;2024-03-22T05:18:43;4.83;79.99
75190;HTU21D;69198;44.694;37.790;2024-03-22T05:19:44;4.83;80.01
75190;HTU21D;69198;44.694;37.790;2024-03-22T05:20:45;4.82;80.01
75190;HTU21D;69198;44.694;37.790;2024-03-22T05:21:46;4.83;80.09
75190;HTU21D;69198;44.694;37.790;2024-03-22T05:22:48;4.83;80.07
75190;HTU21D;69198;44.694;37.790;2024-03-22T05:23:49;4.81;80.07
75190;HTU21D;69198;44.694;37.790;2024-03-22T05:24:50;4.82;80.04
75190;HTU21D;69198;44.694;37.790;2024-03-22T05:25:51;4.84;80.09
75190;HTU21D;69198;44.694;37.790;2024-03-22T05:26:53;4.86;80.07
75190;HTU21D;69198;44.694;37.790;2024-03-22T05:27:54;4.87;80.20
75190;HTU21D;69198;44.694;37.790;2024-03-22T05:28:55;4.89;80.25
75190;HTU21D;69198;44.694;37.790;2024-03-22T05:29:56;4.91;80.32
75190;HTU21D;69198;44.694;37.790;2024-03-22T05:30:57;4.97;80.69
75190;HTU21D;69198;44.694;37.790;2024-03-22T05:31:58;5.03;80.81
75190;HTU21D;69198;44.694;37.790;2024-03-22T05:32:59;5.11;81.45
75190;HTU21D;69198;44.694;37.790;2024-03-22T05:34:00;5.13;81.62
75190;HTU21D;69198;44.694;37.790;2024-03-22T05:35:01;5.17;82.05
75190;HTU21D;69198;44.694;37.790;2024-03-22T05:36:02;5.21;82.52
75190;HTU21D;69198;44.694;37.790;2024-03-22T05:37:06;5.21;82.71
75190;HTU21D;69198;44.694;37.790;2024-03-22T05:38:09;5.19;82.59
75190;HTU21D;69198;44.694;37.790;2024-03-22T05:39:10;5.16;82.90
75190;HTU21D;69198;44.694;37.790;2024-03-22T05:40:12;5.12;83.08
75190;HTU21D;69198;44.694;37.790;2024-03-22T05:41:13;5.08;83.03
75190;HTU21D;69198;44.694;37.790;2024-03-22T05:42:14;5.05;82.91
75190;HTU21D;69198;44.694;37.790;2024-03-22T05:43:15;5.00;82.86
75190;HTU21D;69198;44.694;37.790;2024-03-22T05:44:16;4.94;82.92
75190;HTU21D;69198;44.694;37.790;2024-03-22T05:45:17;4.87;82.92
75190;HTU21D;69198;44.694;37.790;2024-03-22T05:46:18;4.83;82.94
75190;HTU21D;69198;44.694;37.790;2024-03-22T05:47:19;4.83;82.90
75190;HTU21D;69198;44.694;37.790;2024-03-22T05:48:21;4.83;82.97
75190;HTU21D;69198;44.694;37.790;2024-03-22T05:49:22;4.88;83.14
75190;HTU21D;69198;44.694;37.790;2024-03-22T05:50:23;4.92;83.10
75190;HTU21D;69198;44.694;37.790;2024-03-22T05:51:27;4.97;83.07
75190;HTU21D;69198;44.694;37.790;2024-03-22T05:52:28;4.95;82.94
75190;HTU21D;69198;44.694;37.790;2024-03-22T05:53:29;4.93;82.86
75190;HTU21D;69198;44.694;37.790;2024-03-22T05:54:30;4.91;82.76
75190;HTU21D;69198;44.694;37.790;2024-03-22T05:55:31;4.88;82.84
75190;HTU21D;69198;44.694;37.790;2024-03-22T05:56:33;4.89;82.92
75190;HTU21D;69198;44.694;37.790;2024-03-22T05:57:35;4.89;82.93
75190;HTU21D;69198;44.694;37.790;2024-03-22T05:58:42;4.93;83.14
75190;HTU21D;69198;44.694;37.790;2024-03-22T05:59:45;5.00;83.22
75190;HTU21D;69198;44.694;37.790;2024-03-22T06:00:49;5.07;83.29
75190;HTU21D;69198;44.694;37.790;2024-03-22T06:01:51;5.11;83.31
75190;HTU21D;69198;44.694;37.790;2024-03-22T06:02:52;5.13;83.21
75190;HTU21D;69198;44.694;37.790;2024-03-22T06:03:53;5.15;83.02
75190;HTU21D;69198;44.694;37.790;2024-03-22T06:04:54;5.13;82.81
75190;HTU21D;69198;44.694;37.790;2024-03-22T06:05:55;5.11;82.81
75190;HTU21D;69198;44.694;37.790;2024-03-22T06:07:00;5.17;83.04
75190;HTU21D;69198;44.694;37.790;2024-03-22T06:08:04;5.21;83.07
75190;HTU21D;69198;44.694;37.790;2024-03-22T06:09:05;5.21;82.83
75190;HTU21D;69198;44.694;37.790;2024-03-22T06:10:11;5.17;82.67
75190;HTU21D;69198;44.694;37.790;2024-03-22T06:11:12;5.18;82.65
75190;HTU21D;69198;44.694;37.790;2024-03-22T06:12:13;5.17;82.76
75190;HTU21D;69198;44.694;37.790;2024-03-22T06:13:15;5.20;82.66
75190;HTU21D;69198;44.694;37.790;2024-03-22T06:14:16;5.15;82.62
75190;HTU21D;69198;44.694;37.790;2024-03-22T06:15:17;5.13;82.66
75190;HTU21D;69198;44.694;37.790;2024-03-22T06:16:19;5.13;82.72
75190;HTU21D;69198;44.694;37.790;2024-03-22T06:17:20;5.07;82.81
75190;HTU21D;69198;44.694;37.790;2024-03-22T06:18:21;5.07;82.97
75190;HTU21D;69198;44.694;37.790;2024-03-22T06:19:22;5.13;83.07
75190;HTU21D;69198;44.694;37.790;2024-03-22T06:20:23;5.18;83.07
75190;HTU21D;69198;44.694;37.790;2024-03-22T06:21:24;5.22;82.80